sensor_id;sensor_type;location;lat;lon;timestamp;pressure;altitude;pressure_sealevel;temperature;humidity
10946;BME280;5525;42.648;23.368;2023-03-01T00:00:05;95186.69;;;6.17;100.00
10946;BME280;5525;42.648;23.368;2023-03-01T00:02:33;95187.03;;;6.11;100.00
10946;BME280;5525;42.648;23.368;2023-03-01T00:05:00;95177.13;;;6.11;100.00
10946;BME280;5525;42.648;23.368;2023-03-01T00:07:26;95180.59;;;6.12;100.00
10946;BME280;5525;42.648;23.368;2023-03-01T00:09:53;95176.34;;;6.06;100.00
10946;BME280;5525;42.648;23.368;2023-03-01T00:12:20;95183.56;;;6.10;100.00
10946;BME280;5525;42.648;23.368;2023-03-01T00:14:48;95184.91;;;6.08;100.00
10946;BME280;5525;42.648;23.368;2023-03-01T00:17:14;95174.16;;;6.13;100.00
10946;BME280;5525;42.648;23.368;2023-03-01T00:19:42;95165.88;;;6.09;100.00
10946;BME280;5525;42.648;23.368;2023-03-01T00:22:09;95157.53;;;6.11;100.00
10946;BME280;5525;42.648;23.368;2023-03-01T00:24:36;95158.63;;;6.10;100.00
10946;BME280;5525;42.648;23.368;2023-03-01T00:27:02;95152.50;;;6.04;100.00
10946;BME280;5525;42.648;23.368;2023-03-01T00:29:29;95156.22;;;6.08;100.00
10946;BME280;5525;42.648;23.368;2023-03-01T00:31:57;95158.38;;;6.06;100.00
10946;BME280;5525;42.648;23.368;2023-03-01T00:34:24;95145.28;;;6.05;100.00
10946;BME280;5525;42.648;23.368;2023-03-01T00:36:51;95144.75;;;6.03;100.00
10946;BME280;5525;42.648;23.368;2023-03-01T00:39:17;95144.81;;;5.98;100.00
10946;BME280;5525;42.648;23.368;2023-03-01T00:41:44;95145.03;;;6.01;100.00
10946;BME280;5525;42.648;23.368;2023-03-01T00:44:11;95140.22;;;5.98;100.00
10946;BME280;5525;42.648;23.368;2023-03-01T00:46:38;95136.50;;;5.99;100.00
10946;BME280;5525;42.648;23.368;2023-03-01T00:49:06;95138.13;;;5.95;100.00
10946;BME280;5525;42.648;23.368;2023-03-01T00:51:33;95132.28;;;5.93;100.00
10946;BME280;5525;42.648;23.368;2023-03-01T00:54:01;95138.41;;;5.94;100.00
10946;BME280;5525;42.648;23.368;2023-03-01T00:56:28;95125.28;;;5.92;100.00
10946;BME280;5525;42.648;23.368;2023-03-01T00:58:55;95130.19;;;5.85;100.00
10946;BME280;5525;42.648;23.368;2023-03-01T01:01:25;95124.28;;;5.88;100.00
10946;BME280;5525;42.648;23.368;2023-03-01T01:03:54;95129.66;;;5.83;100.00
10946;BME280;5525;42.648;23.368;2023-03-01T01:06:25;95143.03;;;5.88;100.00
10946;BME280;5525;42.648;23.368;2023-03-01T01:08:53;95132.63;;;5.82;100.00
10946;BME280;5525;42.648;23.368;2023-03-01T01:11:21;95128.31;;;5.86;100.00
10946;BME280;5525;42.648;23.368;2023-03-01T01:13:48;95128.03;;;5.87;100.00
10946;BME280;5525;42.648;23.368;2023-03-01T01:16:16;95136.66;;;5.84;100.00
10946;BME280;5525;42.648;23.368;2023-03-01T01:18:44;95125.66;;;5.81;100.00
10946;BME280;5525;42.648;23.368;2023-03-01T01:21:13;95133.97;;;5.79;100.00
10946;BME280;5525;42.648;23.368;2023-03-01T01:23:42;95131.78;;;5.81;100.00
10946;BME280;5525;42.648;23.368;2023-03-01T01:26:11;95131.53;;;5.83;100.00
10946;BME280;5525;42.648;23.368;2023-03-01T01:28:38;95125.66;;;5.86;100.00
10946;BME280;5525;42.648;23.368;2023-03-01T01:31:06;95131.53;;;5.83;100.00
10946;BME280;5525;42.648;23.368;2023-03-01T01:33:33;95123.75;;;5.81;100.00
10946;BME280;5525;42.648;23.368;2023-03-01T01:36:00;95128.53;;;5.89;100.00
10946;BME280;5525;42.648;23.368;2023-03-01T01:38:27;95130.47;;;5.84;100.00
10946;BME280;5525;42.648;23.368;2023-03-01T01:40:55;95139.31;;;5.84;100.00
10946;BME280;5525;42.648;23.368;2023-03-01T01:43:24;95142.22;;;5.88;100.00
10946;BME280;5525;42.648;23.368;2023-03-01T01:45:52;95142.47;;;5.91;100.00
10946;BME280;5525;42.648;23.368;2023-03-01T01:48:24;95151.06;;;5.88;100.00
10946;BME280;5525;42.648;23.368;2023-03-01T01:51:07;95141.09;;;5.94;100.00
10946;BME280;5525;42.648;23.368;2023-03-01T01:53:37;95140.59;;;5.92;100.00
10946;BME280;5525;42.648;23.368;2023-03-01T01:56:07;95136.81;;;5.93;100.00
10946;BME280;5525;42.648;23.368;2023-03-01T01:58:36;95135.44;;;5.95;100.00
10946;BME280;5525;42.648;23.368;2023-03-01T02:01:04;95134.09;;;5.98;100.00
10946;BME280;5525;42.648;23.368;2023-03-01T02:03:37;95131.13;;;5.99;100.00
10946;BME280;5525;42.648;23.368;2023-03-01T02:06:12;95130.00;;;6.05;100.00
10946;BME280;5525;42.648;23.368;2023-03-01T02:08:42;95118.22;;;6.01;100.00
10946;BME280;5525;42.648;23.368;2023-03-01T02:11:10;95122.00;;;6.00;100.00
10946;BME280;5525;42.648;23.368;2023-03-01T02:13:40;95111.56;;;5.99;100.00
10946;BME280;5525;42.648;23.368;2023-03-01T02:16:09;95116.63;;;6.00;100.00
10946;BME280;5525;42.648;23.368;2023-03-01T02:18:37;95117.59;;;6.09;100.00
10946;BME280;5525;42.648;23.368;2023-03-01T02:21:14;95108.84;;;6.04;100.00
10946;BME280;5525;42.648;23.368;2023-03-01T02:23:43;95120.81;;;6.11;100.00
10946;BME280;5525;42.648;23.368;2023-03-01T02:26:15;95117.03;;;6.12;100.00
10946;BME280;5525;42.648;23.368;2023-03-01T02:28:45;95120.81;;;6.11;100.00
10946;BME280;5525;42.648;23.368;2023-03-01T02:31:16;95116.19;;;6.17;100.00
10946;BME280;5525;42.648;23.368;2023-03-01T02:34:02;95119.72;;;6.12;100.00
10946;BME280;5525;42.648;23.368;2023-03-01T02:36:33;95120.84;;;6.06;100.00
10946;BME280;5525;42.648;23.368;2023-03-01T02:39:03;95127.31;;;6.05;100.00
10946;BME280;5525;42.648;23.368;2023-03-01T02:41:34;95140.44;;;6.07;100.00
10946;BME280;5525;42.648;23.368;2023-03-01T02:44:03;95127.84;;;6.07;100.00
10946;BME280;5525;42.648;23.368;2023-03-01T02:46:31;95127.59;;;6.04;100.00
10946;BME280;5525;42.648;23.368;2023-03-01T02:48:58;95128.03;;;6.11;100.00
10946;BME280;5525;42.648;23.368;2023-03-01T02:51:34;95132.06;;;6.13;100.00
10946;BME280;5525;42.648;23.368;2023-03-01T02:54:12;95120.63;;;6.03;100.00
10946;BME280;5525;42.648;23.368;2023-03-01T02:56:43;95121.44;;;6.03;100.00
10946;BME280;5525;42.648;23.368;2023-03-01T02:59:15;95120.41;;;5.99;100.00
10946;BME280;5525;42.648;23.368;2023-03-01T03:01:42;95121.84;;;5.92;100.00
10946;BME280;5525;42.648;23.368;2023-03-01T03:04:12;95124.50;;;5.92;100.00
10946;BME280;5525;42.648;23.368;2023-03-01T03:06:42;95118.63;;;5.90;100.00
10946;BME280;5525;42.648;23.368;2023-03-01T03:09:09;95121.63;;;5.78;100.00
10946;BME280;5525;42.648;23.368;2023-03-01T03:11:36;95128.91;;;5.78;100.00
10946;BME280;5525;42.648;23.368;2023-03-01T03:14:12;95120.88;;;5.78;100.00
10946;BME280;5525;42.648;23.368;2023-03-01T03:16:43;95132.16;;;5.75;100.00
10946;BME280;5525;42.648;23.368;2023-03-01T03:19:10;95126.22;;;5.78;100.00
10946;BME280;5525;42.648;23.368;2023-03-01T03:21:37;95121.75;;;5.68;100.00
10946;BME280;5525;42.648;23.368;2023-03-01T03:24:04;95125.16;;;5.74;100.00
10946;BME280;5525;42.648;23.368;2023-03-01T03:26:32;95134.56;;;5.71;100.00
10946;BME280;5525;42.648;23.368;2023-03-01T03:29:02;95125.44;;;5.72;100.00
10946;BME280;5525;42.648;23.368;2023-03-01T03:31:32;95128.09;;;5.77;100.00
10946;BME280;5525;42.648;23.368;2023-03-01T03:34:00;95137.78;;;5.73;100.00
10946;BME280;5525;42.648;23.368;2023-03-01T03:36:26;95138.63;;;5.69;100.00
10946;BME280;5525;42.648;23.368;2023-03-01T03:38:53;95129.53;;;5.65;100.00
10946;BME280;5525;42.648;23.368;2023-03-01T03:41:20;95131.91;;;5.71;100.00
10946;BME280;5525;42.648;23.368;2023-03-01T03:43:46;95137.50;;;5.75;100.00
10946;BME280;5525;42.648;23.368;2023-03-01T03:46:30;95134.56;;;5.71;100.00
10946;BME280;5525;42.648;23.368;2023-03-01T03:48:57;95133.00;;;5.70;100.00
10946;BME280;5525;42.648;23.368;2023-03-01T03:51:26;95137.81;;;5.68;100.00
10946;BME280;5525;42.648;23.368;2023-03-01T03:53:53;95146.94;;;5.67;100.00
10946;BME280;5525;42.648;23.368;2023-03-01T03:56:23;95143.59;;;5.80;100.00
10946;BME280;5525;42.648;23.368;2023-03-01T04:01:39;95138.56;;;5.74;100.00
10946;BME280;5525;42.648;23.368;2023-03-01T04:04:06;95139.91;;;5.76;100.00
10946;BME280;5525;42.648;23.368;2023-03-01T04:06:34;95146.03;;;5.82;100.00
10946;BME280;5525;42.648;23.368;2023-03-01T04:09:01;95149.25;;;5.79;100.00
10946;BME280;5525;42.648;23.368;2023-03-01T04:11:28;95147.66;;;5.78;100.00
10946;BME280;5525;42.648;23.368;2023-03-01T04:13:56;95140.97;;;5.75;100.00
10946;BME280;5525;42.648;23.368;2023-03-01T04:16:24;95144.94;;;5.83;100.00
10946;BME280;5525;42.648;23.368;2023-03-01T04:18:50;95138.56;;;5.74;100.00
10946;BME280;5525;42.648;23.368;2023-03-01T04:21:17;95141.78;;;5.76;100.00
10946;BME280;5525;42.648;23.368;2023-03-01T04:23:47;95140.47;;;5.73;100.00
10946;BME280;5525;42.648;23.368;2023-03-01T04:26:17;95141.59;;;5.67;100.00
10946;BME280;5525;42.648;23.368;2023-03-01T04:28:47;95146.88;;;5.72;100.00
10946;BME280;5525;42.648;23.368;2023-03-01T04:31:16;95145.81;;;5.73;100.00
10946;BME280;5525;42.648;23.368;2023-03-01T04:33:47;95149.91;;;5.66;100.00
10946;BME280;5525;42.648;23.368;2023-03-01T04:36:17;95141.50;;;5.77;100.00
10946;BME280;5525;42.648;23.368;2023-03-01T04:38:44;95143.19;;;5.68;100.00
10946;BME280;5525;42.648;23.368;2023-03-01T04:41:15;95140.22;;;5.70;100.00
10946;BME280;5525;42.648;23.368;2023-03-01T04:43:45;95135.09;;;5.73;100.00
10946;BME280;5525;42.648;23.368;2023-03-01T04:46:15;95133.59;;;5.62;100.00
10946;BME280;5525;42.648;23.368;2023-03-01T04:48:43;95153.09;;;5.68;100.00
10946;BME280;5525;42.648;23.368;2023-03-01T04:51:11;95141.31;;;5.69;100.00
10946;BME280;5525;42.648;23.368;2023-03-01T04:53:40;95138.06;;;5.72;100.00
10946;BME280;5525;42.648;23.368;2023-03-01T04:56:09;95130.34;;;5.65;100.00
10946;BME280;5525;42.648;23.368;2023-03-01T04:58:37;95137.78;;;5.73;100.00
10946;BME280;5525;42.648;23.368;2023-03-01T05:01:09;95133.44;;;5.77;100.00
10946;BME280;5525;42.648;23.368;2023-03-01T05:03:42;95139.34;;;5.79;100.00
10946;BME280;5525;42.648;23.368;2023-03-01T05:06:10;95140.19;;;5.75;100.00
10946;BME280;5525;42.648;23.368;2023-03-01T05:08:37;95137.78;;;5.73;100.00
10946;BME280;5525;42.648;23.368;2023-03-01T05:11:04;95141.31;;;5.69;100.00
10946;BME280;5525;42.648;23.368;2023-03-01T05:13:34;95138.34;;;5.70;100.00
10946;BME280;5525;42.648;23.368;2023-03-01T05:16:03;95144.78;;;5.69;100.00
10946;BME280;5525;42.648;23.368;2023-03-01T05:18:32;95149.91;;;5.66;100.00
10946;BME280;5525;42.648;23.368;2023-03-01T05:21:02;95138.84;;;5.72;100.00
10946;BME280;5525;42.648;23.368;2023-03-01T05:23:29;95136.66;;;5.79;100.00
10946;BME280;5525;42.648;23.368;2023-03-01T05:25:57;95144.16;;;5.77;100.00
10946;BME280;5525;42.648;23.368;2023-03-01T05:28:25;95138.06;;;5.72;100.00
10946;BME280;5525;42.648;23.368;2023-03-01T05:30:53;95142.88;;;5.75;100.00
10946;BME280;5525;42.648;23.368;2023-03-01T05:33:21;95136.66;;;5.79;100.00
10946;BME280;5525;42.648;23.368;2023-03-01T05:35:48;95135.31;;;5.82;100.00
10946;BME280;5525;42.648;23.368;2023-03-01T05:38:16;95139.25;;;5.89;100.00
10946;BME280;5525;42.648;23.368;2023-03-01T05:40:44;95135.22;;;5.92;100.00
10946;BME280;5525;42.648;23.368;2023-03-01T05:43:12;95145.66;;;5.93;100.00
10946;BME280;5525;42.648;23.368;2023-03-01T05:45:40;95146.69;;;5.97;100.00
10946;BME280;5525;42.648;23.368;2023-03-01T05:48:08;95144.81;;;5.98;100.00
10946;BME280;5525;42.648;23.368;2023-03-01T05:50:38;95140.34;;;5.88;100.00
10946;BME280;5525;42.648;23.368;2023-03-01T05:53:07;95152.84;;;5.98;100.00
10946;BME280;5525;42.648;23.368;2023-03-01T05:55:36;95154.72;;;5.97;100.00
10946;BME280;5525;42.648;23.368;2023-03-01T05:58:04;95164.59;;;6.02;100.00
10946;BME280;5525;42.648;23.368;2023-03-01T06:00:32;95158.97;;;6.03;100.00
10946;BME280;5525;42.648;23.368;2023-03-01T06:02:59;95166.75;;;6.00;100.00
10946;BME280;5525;42.648;23.368;2023-03-01T06:05:27;95171.84;;;6.01;100.00
10946;BME280;5525;42.648;23.368;2023-03-01T06:07:58;95167.09;;;5.93;100.00
10946;BME280;5525;42.648;23.368;2023-03-01T06:10:25;95174.31;;;5.98;100.00
10946;BME280;5525;42.648;23.368;2023-03-01T06:12:52;95177.25;;;5.96;100.00
10946;BME280;5525;42.648;23.368;2023-03-01T06:15:19;95179.41;;;5.94;100.00
10946;BME280;5525;42.648;23.368;2023-03-01T06:17:46;95171.13;;;5.91;100.00
10946;BME280;5525;42.648;23.368;2023-03-01T06:20:15;95186.44;;;5.90;100.00
10946;BME280;5525;42.648;23.368;2023-03-01T06:22:42;95186.94;;;5.92;100.00
10946;BME280;5525;42.648;23.368;2023-03-01T06:25:12;95188.59;;;5.88;100.00
10946;BME280;5525;42.648;23.368;2023-03-01T06:27:39;95165.28;;;5.89;100.00
10946;BME280;5525;42.648;23.368;2023-03-01T06:30:08;95184.63;;;6.09;100.00
10946;BME280;5525;42.648;23.368;2023-03-01T06:32:35;95179.56;;;6.08;100.00
10946;BME280;5525;42.648;23.368;2023-03-01T06:35:02;95168.81;;;6.08;100.00
10946;BME280;5525;42.648;23.368;2023-03-01T06:37:28;95173.41;;;6.07;100.00
10946;BME280;5525;42.648;23.368;2023-03-01T06:39:55;95181.38;;;6.12;100.00
10946;BME280;5525;42.648;23.368;2023-03-01T06:42:23;95182.44;;;6.16;100.00
10946;BME280;5525;42.648;23.368;2023-03-01T06:44:50;95187.16;;;6.24;100.00
10946;BME280;5525;42.648;23.368;2023-03-01T06:47:16;95191.44;;;6.25;100.00
10946;BME280;5525;42.648;23.368;2023-03-01T06:49:43;95190.13;;;6.23;100.00
10946;BME280;5525;42.648;23.368;2023-03-01T06:52:10;95175.81;;;6.32;100.00
10946;BME280;5525;42.648;23.368;2023-03-01T06:54:37;95185.00;;;6.26;100.00
10946;BME280;5525;42.648;23.368;2023-03-01T06:57:03;95184.53;;;6.43;100.00
10946;BME280;5525;42.648;23.368;2023-03-01T06:59:31;95182.28;;;6.55;100.00
10946;BME280;5525;42.648;23.368;2023-03-01T07:01:58;95185.34;;;6.43;100.00
10946;BME280;5525;42.648;23.368;2023-03-01T07:04:25;95187.06;;;6.34;100.00
10946;BME280;5525;42.648;23.368;2023-03-01T07:06:54;95167.59;;;6.24;100.00
10946;BME280;5525;42.648;23.368;2023-03-01T07:09:21;95183.53;;;6.39;100.00
10946;BME280;5525;42.648;23.368;2023-03-01T07:11:48;95189.34;;;6.46;100.00
10946;BME280;5525;42.648;23.368;2023-03-01T07:14:21;95174.72;;;6.57;100.00
10946;BME280;5525;42.648;23.368;2023-03-01T07:16:51;95185.78;;;6.74;100.00
10946;BME280;5525;42.648;23.368;2023-03-01T07:19:18;95174.53;;;6.72;100.00
10946;BME280;5525;42.648;23.368;2023-03-01T07:21:44;95178.03;;;6.72;100.00
10946;BME280;5525;42.648;23.368;2023-03-01T07:24:11;95181.97;;;6.80;100.00
10946;BME280;5525;42.648;23.368;2023-03-01T07:26:38;95169.88;;;6.82;100.00
10946;BME280;5525;42.648;23.368;2023-03-01T07:29:06;95174.75;;;6.99;100.00
10946;BME280;5525;42.648;23.368;2023-03-01T07:31:34;95175.53;;;7.00;100.00
10946;BME280;5525;42.648;23.368;2023-03-01T07:34:02;95180.06;;;7.04;100.00
10946;BME280;5525;42.648;23.368;2023-03-01T07:36:29;95179.28;;;7.22;100.00
10946;BME280;5525;42.648;23.368;2023-03-01T07:39:02;95170.41;;;7.22;100.00
10946;BME280;5525;42.648;23.368;2023-03-01T07:41:29;95172.78;;;7.42;100.00
10946;BME280;5525;42.648;23.368;2023-03-01T07:43:56;95172.09;;;7.36;100.00
10946;BME280;5525;42.648;23.368;2023-03-01T07:46:23;95162.13;;;7.37;100.00
10946;BME280;5525;42.648;23.368;2023-03-01T07:48:50;95171.03;;;7.51;100.00
10946;BME280;5525;42.648;23.368;2023-03-01T07:51:18;95158.47;;;7.46;100.00
10946;BME280;5525;42.648;23.368;2023-03-01T07:53:45;95164.50;;;7.57;100.00
10946;BME280;5525;42.648;23.368;2023-03-01T07:56:14;95153.56;;;7.53;100.00
10946;BME280;5525;42.648;23.368;2023-03-01T07:58:43;95160.53;;;7.54;100.00
10946;BME280;5525;42.648;23.368;2023-03-01T08:01:12;95157.25;;;7.57;100.00
10946;BME280;5525;42.648;23.368;2023-03-01T08:03:39;95151.66;;;7.54;100.00
10946;BME280;5525;42.648;23.368;2023-03-01T08:06:08;95159.94;;;7.57;100.00
10946;BME280;5525;42.648;23.368;2023-03-01T08:08:37;95154.16;;;7.50;100.00
10946;BME280;5525;42.648;23.368;2023-03-01T08:11:05;95159.94;;;7.39;100.00
10946;BME280;5525;42.648;23.368;2023-03-01T08:13:33;95157.78;;;7.22;100.00
10946;BME280;5525;42.648;23.368;2023-03-01T08:16:01;95150.09;;;7.16;100.00
10946;BME280;5525;42.648;23.368;2023-03-01T08:18:28;95143.47;;;7.08;100.00
10946;BME280;5525;42.648;23.368;2023-03-01T08:20:55;95150.59;;;7.18;100.00
10946;BME280;5525;42.648;23.368;2023-03-01T08:23:22;95155.75;;;7.33;100.00
10946;BME280;5525;42.648;23.368;2023-03-01T08:25:50;95145.41;;;7.40;100.00
10946;BME280;5525;42.648;23.368;2023-03-01T08:28:18;95154.28;;;7.40;100.00
10946;BME280;5525;42.648;23.368;2023-03-01T08:30:44;95160.28;;;7.51;100.00
10946;BME280;5525;42.648;23.368;2023-03-01T08:33:11;95152.44;;;7.73;100.00
10946;BME280;5525;42.648;23.368;2023-03-01T08:35:38;95154.16;;;7.82;100.00
10946;BME280;5525;42.648;23.368;2023-03-01T08:38:05;95148.25;;;7.80;100.00
10946;BME280;5525;42.648;23.368;2023-03-01T08:40:31;95146.69;;;7.79;100.00
10946;BME280;5525;42.648;23.368;2023-03-01T08:43:00;95150.97;;;7.80;100.00
10946;BME280;5525;42.648;23.368;2023-03-01T08:45:26;95149.06;;;7.81;100.00
10946;BME280;5525;42.648;23.368;2023-03-01T08:47:53;95144.19;;;7.83;100.00
10946;BME280;5525;42.648;23.368;2023-03-01T08:50:20;95149.38;;;7.79;100.00
10946;BME280;5525;42.648;23.368;2023-03-01T08:52:48;95156.88;;;7.96;100.00
10946;BME280;5525;42.648;23.368;2023-03-01T08:55:14;95149.63;;;7.96;100.00
10946;BME280;5525;42.648;23.368;2023-03-01T08:57:42;95157.13;;;8.13;100.00
10946;BME280;5525;42.648;23.368;2023-03-01T09:00:11;95144.94;;;8.02;100.00
10946;BME280;5525;42.648;23.368;2023-03-01T09:02:40;95150.78;;;7.90;100.00
10946;BME280;5525;42.648;23.368;2023-03-01T09:05:07;95149.50;;;8.01;100.00
10946;BME280;5525;42.648;23.368;2023-03-01T09:07:34;95151.19;;;7.97;100.00
10946;BME280;5525;42.648;23.368;2023-03-01T09:10:01;95149.84;;;7.81;100.00
10946;BME280;5525;42.648;23.368;2023-03-01T09:12:28;95142.78;;;7.72;100.00
10946;BME280;5525;42.648;23.368;2023-03-01T09:14:55;95150.06;;;7.85;100.00
10946;BME280;5525;42.648;23.368;2023-03-01T09:17:23;95153.88;;;7.97;100.00
10946;BME280;5525;42.648;23.368;2023-03-01T09:19:49;95147.53;;;8.07;100.00
10946;BME280;5525;42.648;23.368;2023-03-01T09:22:16;95145.25;;;8.14;100.00
10946;BME280;5525;42.648;23.368;2023-03-01T09:24:43;95152.38;;;7.91;100.00
10946;BME280;5525;42.648;23.368;2023-03-01T09:27:10;95144.94;;;8.02;100.00
10946;BME280;5525;42.648;23.368;2023-03-01T09:29:38;95136.78;;;8.07;100.00
10946;BME280;5525;42.648;23.368;2023-03-01T09:32:05;95145.13;;;8.24;100.00
10946;BME280;5525;42.648;23.368;2023-03-01T09:34:34;95141.84;;;8.27;100.00
10946;BME280;5525;42.648;23.368;2023-03-01T09:37:22;95134.16;;;8.61;100.00
10946;BME280;5525;42.648;23.368;2023-03-01T09:39:49;95145.91;;;8.65;100.00
10946;BME280;5525;42.648;23.368;2023-03-01T09:42:16;95133.84;;;8.35;100.00
10946;BME280;5525;42.648;23.368;2023-03-01T09:44:48;95130.78;;;8.28;100.00
10946;BME280;5525;42.648;23.368;2023-03-01T09:47:18;95127.63;;;8.21;100.00
10946;BME280;5525;42.648;23.368;2023-03-01T09:49:53;95126.34;;;8.19;100.00
10946;BME280;5525;42.648;23.368;2023-03-01T09:52:28;95120.19;;;8.32;100.00
10946;BME280;5525;42.648;23.368;2023-03-01T09:54:56;95119.81;;;8.66;100.00
10946;BME280;5525;42.648;23.368;2023-03-01T09:57:29;95121.00;;;8.73;100.00
10946;BME280;5525;42.648;23.368;2023-03-01T10:00:05;95130.78;;;8.55;100.00
10946;BME280;5525;42.648;23.368;2023-03-01T10:02:42;95110.94;;;8.51;100.00
10946;BME280;5525;42.648;23.368;2023-03-01T10:05:31;95111.63;;;8.43;100.00
10946;BME280;5525;42.648;23.368;2023-03-01T10:08:13;95108.03;;;8.48;100.00
10946;BME280;5525;42.648;23.368;2023-03-01T10:10:47;95103.66;;;8.52;100.00
10946;BME280;5525;42.648;23.368;2023-03-01T10:13:17;95108.44;;;8.69;100.00
10946;BME280;5525;42.648;23.368;2023-03-01T10:15:49;95107.13;;;8.66;100.00
10946;BME280;5525;42.648;23.368;2023-03-01T10:18:21;95096.16;;;8.63;100.00
10946;BME280;5525;42.648;23.368;2023-03-01T10:20:53;95100.97;;;8.66;100.00
10946;BME280;5525;42.648;23.368;2023-03-01T10:23:22;95103.88;;;8.42;100.00
10946;BME280;5525;42.648;23.368;2023-03-01T10:25:59;95090.31;;;8.61;100.00
10946;BME280;5525;42.648;23.368;2023-03-01T10:28:37;95086.81;;;8.46;100.00
10946;BME280;5525;42.648;23.368;2023-03-01T10:31:12;95085.00;;;8.69;100.00
10946;BME280;5525;42.648;23.368;2023-03-01T10:33:40;95085.91;;;8.65;100.00
10946;BME280;5525;42.648;23.368;2023-03-01T10:36:08;95082.50;;;8.73;100.00
10946;BME280;5525;42.648;23.368;2023-03-01T10:38:48;95086.47;;;8.75;100.00
10946;BME280;5525;42.648;23.368;2023-03-01T10:41:17;95076.28;;;8.86;100.00
10946;BME280;5525;42.648;23.368;2023-03-01T10:43:47;95079.16;;;8.89;100.00
10946;BME280;5525;42.648;23.368;2023-03-01T10:46:32;95069.50;;;8.88;100.00
10946;BME280;5525;42.648;23.368;2023-03-01T10:49:08;95063.41;;;8.96;100.00
10946;BME280;5525;42.648;23.368;2023-03-01T10:51:40;95062.81;;;8.99;100.00
10946;BME280;5525;42.648;23.368;2023-03-01T10:54:16;95074.28;;;8.91;100.00
10946;BME280;5525;42.648;23.368;2023-03-01T10:56:49;95071.59;;;8.91;100.00
10946;BME280;5525;42.648;23.368;2023-03-01T10:59:25;95067.72;;;8.84;100.00
10946;BME280;5525;42.648;23.368;2023-03-01T11:02:12;95067.28;;;9.26;100.00
10946;BME280;5525;42.648;23.368;2023-03-01T11:04:56;95070.03;;;9.56;100.00
10946;BME280;5525;42.648;23.368;2023-03-01T11:07:24;95065.38;;;10.01;100.00
10946;BME280;5525;42.648;23.368;2023-03-01T11:09:51;95068.13;;;10.40;100.00
10946;BME280;5525;42.648;23.368;2023-03-01T11:12:18;95068.38;;;10.61;100.00
10946;BME280;5525;42.648;23.368;2023-03-01T11:14:47;95066.88;;;10.38;100.00
10946;BME280;5525;42.648;23.368;2023-03-01T11:17:17;95072.53;;;10.27;100.00
10946;BME280;5525;42.648;23.368;2023-03-01T11:20:00;95062.16;;;10.12;100.00
10946;BME280;5525;42.648;23.368;2023-03-01T11:22:28;95066.28;;;10.10;100.00
10946;BME280;5525;42.648;23.368;2023-03-01T11:24:57;95065.47;;;9.87;100.00
10946;BME280;5525;42.648;23.368;2023-03-01T11:27:26;95070.72;;;9.84;100.00
10946;BME280;5525;42.648;23.368;2023-03-01T11:29:57;95065.44;;;9.79;100.00
10946;BME280;5525;42.648;23.368;2023-03-01T11:32:28;95070.00;;;10.00;100.00
10946;BME280;5525;42.648;23.368;2023-03-01T11:35:02;95058.34;;;10.13;100.00
10946;BME280;5525;42.648;23.368;2023-03-01T11:37:36;95064.25;;;10.24;100.00
10946;BME280;5525;42.648;23.368;2023-03-01T11:40:11;95062.03;;;10.26;100.00
10946;BME280;5525;42.648;23.368;2023-03-01T11:42:50;95040.41;;;10.65;100.00
10946;BME280;5525;42.648;23.368;2023-03-01T11:45:23;95043.38;;;10.47;100.00
10946;BME280;5525;42.648;23.368;2023-03-01T11:47:59;95040.63;;;9.99;100.00
10946;BME280;5525;42.648;23.368;2023-03-01T11:50:40;95038.03;;;9.85;100.00
10946;BME280;5525;42.648;23.368;2023-03-01T11:53:34;95028.72;;;9.61;100.00
10946;BME280;5525;42.648;23.368;2023-03-01T11:56:16;95027.22;;;9.55;100.00
10946;BME280;5525;42.648;23.368;2023-03-01T11:59:02;95027.72;;;9.57;100.00
10946;BME280;5525;42.648;23.368;2023-03-01T12:01:40;95026.94;;;9.34;100.00
10946;BME280;5525;42.648;23.368;2023-03-01T12:04:30;95031.25;;;9.66;100.00
10946;BME280;5525;42.648;23.368;2023-03-01T12:07:08;95026.31;;;10.29;100.00
10946;BME280;5525;42.648;23.368;2023-03-01T12:09:50;95015.19;;;11.04;100.00
10946;BME280;5525;42.648;23.368;2023-03-01T12:12:47;95024.66;;;11.61;100.00
10946;BME280;5525;42.648;23.368;2023-03-01T12:15:30;95024.53;;;11.66;100.00
10946;BME280;5525;42.648;23.368;2023-03-01T12:18:28;95011.50;;;11.42;100.00
10946;BME280;5525;42.648;23.368;2023-03-01T12:21:04;95018.69;;;11.13;100.00
10946;BME280;5525;42.648;23.368;2023-03-01T12:23:53;95011.47;;;11.76;100.00
10946;BME280;5525;42.648;23.368;2023-03-01T12:26:27;95004.88;;;12.32;100.00
10946;BME280;5525;42.648;23.368;2023-03-01T12:29:06;95005.84;;;11.90;100.00
10946;BME280;5525;42.648;23.368;2023-03-01T12:37:21;94992.44;;;10.62;100.00
10946;BME280;5525;42.648;23.368;2023-03-01T12:39:58;95009.06;;;10.47;100.00
10946;BME280;5525;42.648;23.368;2023-03-01T12:42:35;94998.97;;;10.13;100.00
10946;BME280;5525;42.648;23.368;2023-03-01T12:45:48;94994.66;;;10.04;100.00
10946;BME280;5525;42.648;23.368;2023-03-01T12:48:27;94993.34;;;10.01;100.00
10946;BME280;5525;42.648;23.368;2023-03-01T12:50:59;95000.13;;;9.90;100.00
10946;BME280;5525;42.648;23.368;2023-03-01T12:53:30;94987.31;;;9.96;100.00
10946;BME280;5525;42.648;23.368;2023-03-01T12:56:00;94993.88;;;10.12;100.00
10946;BME280;5525;42.648;23.368;2023-03-01T12:58:32;94990.25;;;10.16;100.00
10946;BME280;5525;42.648;23.368;2023-03-01T13:01:16;94991.38;;;10.24;100.00
10946;BME280;5525;42.648;23.368;2023-03-01T13:03:59;94985.66;;;10.08;100.00
10946;BME280;5525;42.648;23.368;2023-03-01T13:06:35;94991.38;;;10.15;100.00
10946;BME280;5525;42.648;23.368;2023-03-01T13:09:14;94995.34;;;9.87;100.00
10946;BME280;5525;42.648;23.368;2023-03-01T13:11:44;94994.94;;;10.02;100.00
10946;BME280;5525;42.648;23.368;2023-03-01T13:14:39;94995.88;;;10.29;100.00
10946;BME280;5525;42.648;23.368;2023-03-01T13:17:32;94999.78;;;9.83;100.00
10946;BME280;5525;42.648;23.368;2023-03-01T13:19:59;95000.91;;;9.82;100.00
10946;BME280;5525;42.648;23.368;2023-03-01T13:22:29;95001.03;;;9.77;100.00
10946;BME280;5525;42.648;23.368;2023-03-01T13:25:13;94997.59;;;9.85;100.00